Time;durP1;ratioP1;P1;durP2;ratioP2;P2;SDS_P1;SDS_P2;PMS_P1;PMS_P2;Temp;Humidity;BMP_temperature;BMP_pressure;BME280_temperature;BME280_humidity;BME280_pressure;Samples;Min_cycle;Max_cycle;Signal;HPM_P1;HPM_P2
2022/05/26 00:00:54;;;;;;;0.98;0.70;;;20.70;58.80;;;;;;4974695;28;20050;-13
2022/05/26 00:03:20;;;;;;;1.05;0.75;;;20.70;58.80;;;;;;4973934;28;20133;-17
2022/05/26 00:05:45;;;;;;;0.90;0.68;;;20.70;58.80;;;;;;4974243;28;20051;-16
2022/05/26 00:08:11;;;;;;;1.15;0.88;;;20.80;58.70;;;;;;4974594;28;20450;-16
2022/05/26 00:10:37;;;;;;;1.00;0.80;;;20.70;58.80;;;;;;4974760;28;20058;-14
2022/05/26 00:13:02;;;;;;;1.33;0.60;;;20.70;58.80;;;;;;4974699;28;20073;-14
2022/05/26 00:15:30;;;;;;;1.35;0.90;;;20.80;58.90;;;;;;4974976;28;20098;-14
2022/05/26 00:17:55;;;;;;;1.45;0.55;;;20.80;58.70;;;;;;4974642;28;20407;-14
2022/05/26 00:20:21;;;;;;;0.93;0.60;;;20.80;58.70;;;;;;4974690;28;20047;-14
2022/05/26 00:22:47;;;;;;;0.57;0.50;;;20.80;58.70;;;;;;4975227;28;20062;-15
2022/05/26 00:25:12;;;;;;;1.00;0.70;;;20.80;58.70;;;;;;4974736;28;20062;-13
2022/05/26 00:27:38;;;;;;;0.90;0.70;;;20.80;58.90;;;;;;4974147;28;20043;-14
2022/05/26 00:30:04;;;;;;;0.80;0.60;;;20.70;58.80;;;;;;4979299;28;20046;-13
2022/05/26 00:32:30;;;;;;;1.00;0.73;;;20.70;58.80;;;;;;4982402;28;20539;-13
2022/05/26 00:34:56;;;;;;;1.00;0.90;;;20.70;58.80;;;;;;4973713;28;20519;-13
2022/05/26 00:37:21;;;;;;;1.05;0.60;;;20.70;58.90;;;;;;4974547;28;20455;-14
2022/05/26 00:39:47;;;;;;;1.60;0.50;;;20.70;58.90;;;;;;4974380;28;20046;-15
2022/05/26 00:42:13;;;;;;;1.02;0.68;;;20.70;58.90;;;;;;4973503;28;20054;-13
2022/05/26 00:44:39;;;;;;;0.45;0.43;;;20.70;58.90;;;;;;4974930;28;20055;-12
2022/05/26 00:47:10;;;;;;;0.60;0.50;;;20.70;59.00;;;;;;4974266;28;20084;-12
2022/05/26 00:50:00;;;;;;;0.55;0.50;;;20.70;58.90;;;;;;4973464;28;20085;-13
2022/05/26 00:52:49;;;;;;;1.08;0.82;;;20.70;58.90;;;;;;4954630;28;20042;-12
2022/05/26 00:55:19;;;;;;;0.70;0.52;;;20.70;59.00;;;;;;4974126;28;20584;-12
2022/05/26 00:57:47;;;;;;;1.00;0.50;;;20.70;58.90;;;;;;4960896;28;20062;-14
2022/05/26 01:00:15;;;;;;;0.73;0.60;;;20.70;58.90;;;;;;4971752;28;20546;-14
2022/05/26 01:02:43;;;;;;;0.50;0.40;;;20.70;58.90;;;;;;4972786;28;20043;-12
2022/05/26 01:05:15;;;;;;;0.65;0.45;;;20.70;58.90;;;;;;4969160;28;20051;-12
2022/05/26 01:07:41;;;;;;;0.65;0.65;;;20.70;58.90;;;;;;4973002;28;20046;-14
2022/05/26 01:10:08;;;;;;;0.88;0.80;;;20.70;59.00;;;;;;4964203;28;20054;-14
2022/05/26 01:12:34;;;;;;;0.52;0.50;;;20.70;58.90;;;;;;4974129;28;20567;-13
2022/05/26 01:15:04;;;;;;;0.30;0.30;;;20.70;58.80;;;;;;4972577;28;20534;-12
2022/05/26 01:17:58;;;;;;;1.00;0.70;;;20.70;58.90;;;;;;4972896;28;20047;-12
2022/05/26 01:21:07;;;;;;;0.82;0.68;;;20.70;58.90;;;;;;4972974;28;20050;-13
2022/05/26 01:23:39;;;;;;;0.70;0.60;;;20.70;58.90;;;;;;4955732;28;20050;-12
2022/05/26 01:26:29;;;;;;;0.63;0.52;;;20.70;58.90;;;;;;4988152;28;20635;-12
2022/05/26 01:29:04;;;;;;;1.15;0.55;;;20.70;58.90;;;;;;4970290;28;20093;-15
2022/05/26 01:31:48;;;;;;;0.52;0.40;;;20.70;58.90;;;;;;4983666;28;20046;-13
2022/05/26 01:34:34;;;;;;;0.43;0.30;;;20.70;58.90;;;;;;4973446;28;20046;-13
2022/05/26 01:37:12;;;;;;;0.43;0.43;;;20.70;58.80;;;;;;4971214;28;20058;-12
2022/05/26 01:39:40;;;;;;;0.70;0.50;;;20.70;58.80;;;;;;4973124;28;20042;-12
2022/05/26 01:42:21;;;;;;;0.50;0.40;;;20.70;58.80;;;;;;4970725;28;20142;-13
2022/05/26 01:45:04;;;;;;;0.50;0.45;;;20.70;58.80;;;;;;4971590;28;20100;-14
2022/05/26 01:47:48;;;;;;;3.03;0.47;;;20.70;58.90;;;;;;4971769;28;20495;-14
2022/05/26 01:50:17;;;;;;;0.50;0.40;;;20.70;58.80;;;;;;4972277;28;20550;-13
2022/05/26 01:52:56;;;;;;;0.75;0.30;;;20.70;58.90;;;;;;4973334;28;20047;-13
2022/05/26 01:55:25;;;;;;;0.35;0.35;;;20.70;58.80;;;;;;4952533;28;20127;-13
2022/05/26 01:58:03;;;;;;;0.70;0.50;;;20.70;58.80;;;;;;4960126;28;20588;-13
2022/05/26 02:00:29;;;;;;;0.68;0.40;;;20.70;58.80;;;;;;4967065;28;20067;-13
2022/05/26 02:03:01;;;;;;;0.98;0.40;;;20.70;58.90;;;;;;4962778;28;20126;-13
2022/05/26 02:05:28;;;;;;;0.80;0.50;;;20.70;58.90;;;;;;4970045;28;20500;-13
2022/05/26 02:08:05;;;;;;;0.80;0.40;;;20.70;58.90;;;;;;4956069;28;20070;-14
2022/05/26 02:11:06;;;;;;;0.52;0.40;;;20.70;58.90;;;;;;4972415;28;20057;-13
2022/05/26 02:13:36;;;;;;;0.77;0.40;;;20.70;58.90;;;;;;4972611;28;20049;-13
2022/05/26 02:16:46;;;;;;;0.30;0.30;;;20.70;58.90;;;;;;4951845;28;20421;-13
2022/05/26 02:19:32;;;;;;;0.50;0.40;;;20.70;58.90;;;;;;4963821;28;20062;-14
2022/05/26 02:22:12;;;;;;;0.63;0.40;;;20.70;58.90;;;;;;4955690;28;20081;-14
2022/05/26 02:24:45;;;;;;;1.27;0.40;;;20.70;58.90;;;;;;4973103;28;20054;-13
2022/05/26 02:27:11;;;;;;;0.47;0.35;;;20.70;58.80;;;;;;4973160;28;20090;-13
2022/05/26 02:29:52;;;;;;;0.35;0.30;;;20.70;58.90;;;;;;4975384;28;20058;-14
2022/05/26 02:32:37;;;;;;;1.08;0.60;;;20.70;59.10;;;;;;4974311;28;20039;-14
2022/05/26 02:35:10;;;;;;;0.38;0.30;;;20.60;59.00;;;;;;4974205;28;20526;-14
2022/05/26 02:37:37;;;;;;;0.57;0.40;;;20.60;59.30;;;;;;4974675;28;20504;-13
2022/05/26 02:40:04;;;;;;;0.30;0.30;;;20.50;59.30;;;;;;4974672;28;20046;-13
2022/05/26 02:42:29;;;;;;;0.40;0.38;;;20.60;59.30;;;;;;4976348;28;20038;-13
2022/05/26 02:44:55;;;;;;;1.27;0.50;;;20.60;59.30;;;;;;4976398;28;20039;-13
2022/05/26 02:47:24;;;;;;;0.30;0.20;;;20.50;59.20;;;;;;4973935;28;20089;-13
2022/05/26 02:49:59;;;;;;;0.40;0.40;;;20.50;59.20;;;;;;4976544;28;20039;-13
2022/05/26 02:52:26;;;;;;;0.35;0.28;;;20.50;59.20;;;;;;4975872;28;20039;-12
2022/05/26 02:55:29;;;;;;;0.38;0.30;;;20.50;59.30;;;;;;4977072;28;20081;-12
2022/05/26 02:58:02;;;;;;;0.50;0.32;;;20.50;59.40;;;;;;4965197;28;20049;-13
2022/05/26 03:00:42;;;;;;;0.60;0.40;;;20.50;59.40;;;;;;4994445;28;20137;-12
2022/05/26 03:03:33;;;;;;;0.30;0.30;;;20.50;59.30;;;;;;4964888;28;20077;-13
2022/05/26 03:06:29;;;;;;;0.40;0.40;;;20.50;59.40;;;;;;4962797;28;20039;-12
2022/05/26 03:08:54;;;;;;;0.38;0.30;;;20.50;59.40;;;;;;4977543;28;20125;-12
2022/05/26 03:11:22;;;;;;;0.80;0.50;;;20.50;59.50;;;;;;4961845;28;20081;-12
2022/05/26 03:13:50;;;;;;;0.90;0.63;;;20.50;59.40;;;;;;4980120;28;20035;-13
2022/05/26 03:16:15;;;;;;;0.63;0.50;;;20.40;59.40;;;;;;4979348;28;20146;-13
2022/05/26 03:18:41;;;;;;;0.60;0.40;;;20.40;59.50;;;;;;4978666;28;20070;-14
2022/05/26 03:21:07;;;;;;;0.57;0.43;;;20.40;59.40;;;;;;4979180;28;20504;-15
2022/05/26 03:23:32;;;;;;;0.77;0.50;;;20.40;59.40;;;;;;4979498;28;20054;-13
2022/05/26 03:25:58;;;;;;;0.77;0.65;;;20.40;59.50;;;;;;4979700;28;20043;-14
2022/05/26 03:28:25;;;;;;;0.30;0.30;;;20.40;59.40;;;;;;4979082;28;20050;-13
2022/05/26 03:30:50;;;;;;;0.60;0.40;;;20.40;59.50;;;;;;4979050;28;20132;-13
2022/05/26 03:33:17;;;;;;;0.47;0.40;;;20.40;59.30;;;;;;4979171;28;20109;-13
2022/05/26 03:41:12;;;;;;;;;;;20.40;59.40;;;;;;4979550;28;20065;-12
2022/05/26 03:43:39;;;;;;;1.05;0.40;;;20.40;59.40;;;;;;4993720;28;19917;-13
2022/05/26 03:46:05;;;;;;;0.65;0.45;;;20.40;59.40;;;;;;4977849;28;20054;-13
2022/05/26 03:48:31;;;;;;;0.60;0.30;;;20.30;59.30;;;;;;4978848;28;20052;-12
2022/05/26 03:50:56;;;;;;;0.55;0.25;;;20.30;59.20;;;;;;4979490;28;20665;-14
2022/05/26 03:53:22;;;;;;;0.60;0.38;;;20.40;59.40;;;;;;4978488;28;20106;-12
2022/05/26 03:55:47;;;;;;;0.28;0.28;;;20.40;59.30;;;;;;4978592;28;20047;-12
2022/05/26 03:58:13;;;;;;;0.52;0.40;;;20.30;59.30;;;;;;4978499;28;20077;-13
2022/05/26 04:00:39;;;;;;;0.50;0.40;;;20.40;59.20;;;;;;4979277;28;20102;-14
2022/05/26 04:03:04;;;;;;;0.38;0.30;;;20.30;59.30;;;;;;4978690;28;20097;-15
2022/05/26 04:05:30;;;;;;;0.20;0.20;;;20.30;59.20;;;;;;4977544;28;20053;-13
2022/05/26 04:07:56;;;;;;;0.35;0.35;;;20.30;59.10;;;;;;4979125;28;20111;-12
2022/05/26 04:10:21;;;;;;;0.25;0.25;;;20.30;59.30;;;;;;4978529;28;20107;-13
2022/05/26 04:12:47;;;;;;;0.47;0.35;;;20.30;59.10;;;;;;4977997;28;20038;-12
2022/05/26 04:15:13;;;;;;;0.75;0.38;;;20.40;59.20;;;;;;4978394;28;20043;-12
2022/05/26 04:17:39;;;;;;;1.88;0.30;;;20.30;59.10;;;;;;4978949;28;20058;-14
2022/05/26 04:20:06;;;;;;;0.43;0.25;;;20.30;59.00;;;;;;4978376;28;20045;-14
2022/05/26 04:22:32;;;;;;;0.57;0.40;;;20.30;59.00;;;;;;4978237;28;20134;-12
2022/05/26 04:24:58;;;;;;;0.20;0.20;;;20.30;59.10;;;;;;4978832;28;20074;-13
2022/05/26 04:27:26;;;;;;;0.28;0.20;;;20.30;59.00;;;;;;4978066;28;20082;-12
2022/05/26 04:29:52;;;;;;;0.20;0.20;;;20.30;59.00;;;;;;4978186;28;20051;-12
2022/05/26 04:32:18;;;;;;;0.30;0.30;;;20.30;59.00;;;;;;4978079;28;20054;-13
2022/05/26 04:34:45;;;;;;;0.93;0.50;;;20.40;59.30;;;;;;4978161;28;20051;-15
2022/05/26 04:37:11;;;;;;;0.40;0.20;;;20.30;59.10;;;;;;4977893;28;20050;-13
2022/05/26 04:39:37;;;;;;;0.57;0.30;;;20.40;59.00;;;;;;4978042;28;20126;-13
2022/05/26 04:42:03;;;;;;;0.43;0.20;;;20.30;59.00;;;;;;4978306;28;20109;-14
2022/05/26 04:44:31;;;;;;;0.32;0.28;;;20.30;58.80;;;;;;4977822;28;20047;-13
2022/05/26 04:46:56;;;;;;;0.10;0.10;;;20.30;59.60;;;;;;4978477;28;20047;-13
2022/05/26 04:49:22;;;;;;;0.30;0.30;;;20.30;59.10;;;;;;4976998;28;20039;-14
2022/05/26 04:51:48;;;;;;;0.20;0.10;;;20.30;58.90;;;;;;4978284;28;20126;-12
2022/05/26 04:54:13;;;;;;;0.28;0.15;;;20.30;59.00;;;;;;4976952;28;20097;-13
2022/05/26 04:56:39;;;;;;;0.22;0.20;;;20.30;58.90;;;;;;4978042;28;20047;-13
2022/05/26 04:59:05;;;;;;;0.10;0.10;;;20.30;59.00;;;;;;4978142;28;20042;-12
2022/05/26 05:01:31;;;;;;;0.17;0.17;;;20.30;59.10;;;;;;4978045;28;20043;-13
2022/05/26 05:03:57;;;;;;;0.20;0.20;;;20.30;58.80;;;;;;4977461;28;20043;-13
2022/05/26 05:06:22;;;;;;;0.30;0.10;;;20.30;58.90;;;;;;4977412;28;20051;-12
2022/05/26 05:08:48;;;;;;;0.30;0.30;;;20.30;59.10;;;;;;4977451;28;20456;-12
2022/05/26 05:11:13;;;;;;;0.20;0.20;;;20.30;58.90;;;;;;4977184;28;20043;-13
2022/05/26 05:13:39;;;;;;;0.20;0.20;;;20.30;58.90;;;;;;4977935;28;20534;-12
2022/05/26 05:16:33;;;;;;;0.30;0.30;;;20.30;58.90;;;;;;4976011;28;20057;-13
2022/05/26 05:18:58;;;;;;;0.10;0.10;;;20.30;58.90;;;;;;4976120;28;20039;-13
2022/05/26 05:21:28;;;;;;;0.20;0.10;;;20.30;58.90;;;;;;4976510;28;20166;-12
2022/05/26 05:24:00;;;;;;;0.30;0.30;;;20.30;58.90;;;;;;4977504;28;20130;-12
2022/05/26 05:26:26;;;;;;;0.35;0.28;;;20.30;58.80;;;;;;4974953;28;20043;-14
2022/05/26 05:29:00;;;;;;;0.10;0.10;;;20.30;59.00;;;;;;4977696;28;20047;-14
2022/05/26 05:31:28;;;;;;;3.57;0.70;;;20.30;58.90;;;;;;4629642;28;10000148;-13
2022/05/26 05:33:59;;;;;;;0.98;0.32;;;20.40;58.90;;;;;;4979574;28;20779;-13
2022/05/26 05:36:29;;;;;;;1.27;0.22;;;20.40;59.80;;;;;;4973088;28;20045;-12
2022/05/26 05:38:56;;;;;;;0.80;0.20;;;20.20;60.20;;;;;;4967374;28;20121;-14
2022/05/26 05:41:22;;;;;;;0.30;0.10;;;19.80;61.30;;;;;;4966717;28;20046;-13
2022/05/26 05:43:47;;;;;;;0.43;0.13;;;19.70;61.50;;;;;;4970997;28;20101;-13
2022/05/26 05:46:14;;;;;;;0.43;0.13;;;19.70;61.90;;;;;;4977077;28;20046;-13
2022/05/26 05:48:43;;;;;;;0.10;0.10;;;19.60;62.30;;;;;;4971920;28;20125;-13
2022/05/26 05:51:09;;;;;;;1.77;0.10;;;19.50;62.50;;;;;;4973004;28;20105;-13
2022/05/26 05:53:35;;;;;;;0.40;0.20;;;19.50;62.80;;;;;;4972023;28;20142;-13
2022/05/26 05:56:00;;;;;;;0.35;0.17;;;19.40;63.00;;;;;;4973501;28;20047;-12
2022/05/26 05:58:26;;;;;;;0.63;0.10;;;19.30;63.10;;;;;;4972793;28;20112;-12
2022/05/26 06:00:52;;;;;;;0.40;0.10;;;19.30;63.20;;;;;;4974841;28;20046;-12
2022/05/26 06:03:17;;;;;;;0.40;0.10;;;19.30;63.20;;;;;;4973015;28;20070;-12
2022/05/26 06:05:43;;;;;;;0.10;0.10;;;19.30;63.50;;;;;;4972605;28;20050;-12
2022/05/26 06:08:08;;;;;;;0.80;0.20;;;19.10;64.10;;;;;;4986295;28;20062;-12
2022/05/26 06:10:34;;;;;;;0.43;0.10;;;19.10;64.60;;;;;;4972652;28;20070;-13
2022/05/26 06:13:00;;;;;;;0.77;0.30;;;19.00;64.70;;;;;;4972562;28;20113;-13
2022/05/26 06:15:25;;;;;;;1.05;0.22;;;19.00;64.40;;;;;;4972505;28;20450;-12
2022/05/26 06:17:51;;;;;;;1.17;0.30;;;18.90;64.90;;;;;;4973104;28;20082;-13
2022/05/26 06:20:17;;;;;;;0.40;0.20;;;18.90;65.20;;;;;;4970562;28;20067;-12
2022/05/26 06:22:44;;;;;;;0.40;0.30;;;19.00;65.00;;;;;;4972393;28;20055;-15
2022/05/26 06:25:09;;;;;;;0.52;0.30;;;18.90;65.30;;;;;;4973246;28;20053;-12
2022/05/26 06:30:20;;;;;;;0.35;0.15;;;18.80;65.70;;;;;;4976693;28;20177;-12
2022/05/26 06:38:15;;;;;;;1.42;0.45;;;18.90;65.30;;;;;;4972510;28;20592;-13
2022/05/26 06:40:41;;;;;;;0.40;0.20;;;18.90;65.10;;;;;;4972227;28;20129;-12
2022/05/26 06:43:07;;;;;;;0.35;0.10;;;18.80;65.60;;;;;;4985356;28;20377;-12
2022/05/26 06:45:32;;;;;;;0.95;0.20;;;18.90;65.60;;;;;;4971820;28;20049;-13
2022/05/26 06:47:58;;;;;;;0.30;0.28;;;18.70;65.60;;;;;;4969764;28;20101;-12
2022/05/26 06:50:24;;;;;;;0.60;0.30;;;18.70;65.90;;;;;;4972303;28;20042;-12
2022/05/26 06:52:50;;;;;;;1.25;0.35;;;18.70;66.10;;;;;;4972708;28;20074;-12
2022/05/26 06:55:16;;;;;;;0.35;0.25;;;18.80;65.90;;;;;;4971586;28;20092;-14
2022/05/26 06:57:41;;;;;;;0.32;0.20;;;18.60;66.10;;;;;;4972149;28;20111;-13
2022/05/26 07:00:08;;;;;;;0.38;0.30;;;18.60;66.40;;;;;;4980089;28;20054;-14
2022/05/26 07:02:34;;;;;;;0.30;0.30;;;18.60;66.50;;;;;;4976902;28;20054;-13
2022/05/26 07:05:00;;;;;;;0.60;0.40;;;18.70;66.50;;;;;;4971850;28;20058;-13
2022/05/26 07:07:26;;;;;;;0.40;0.20;;;18.70;66.20;;;;;;4971743;28;20503;-12
2022/05/26 07:09:55;;;;;;;0.43;0.25;;;18.60;66.50;;;;;;4971935;28;20065;-12
2022/05/26 07:12:22;;;;;;;0.30;0.30;;;18.60;66.50;;;;;;4970015;28;20053;-12
2022/05/26 07:14:47;;;;;;;0.52;0.30;;;18.50;66.70;;;;;;4972223;28;20039;-12
2022/05/26 07:17:13;;;;;;;0.68;0.30;;;18.60;66.70;;;;;;4971849;28;20055;-13
2022/05/26 07:19:39;;;;;;;0.45;0.38;;;18.70;66.20;;;;;;4986847;28;20106;-12
2022/05/26 07:22:04;;;;;;;0.73;0.35;;;18.70;66.00;;;;;;4971523;28;20492;-12
2022/05/26 07:24:30;;;;;;;0.70;0.20;;;18.70;66.00;;;;;;4971511;28;20035;-12
2022/05/26 07:26:55;;;;;;;0.93;0.38;;;18.50;66.40;;;;;;4972294;28;20424;-12
2022/05/26 07:29:21;;;;;;;0.75;0.30;;;18.60;66.10;;;;;;4972140;28;20106;-13
2022/05/26 07:31:47;;;;;;;0.25;0.25;;;18.50;66.30;;;;;;4972202;28;20089;-13
2022/05/26 07:34:12;;;;;;;0.30;0.20;;;18.60;66.20;;;;;;4979115;28;20052;-13
2022/05/26 07:42:09;;;;;;;0.30;0.22;;;19.00;64.40;;;;;;4974238;28;20308;-13
2022/05/26 07:44:38;;;;;;;0.80;0.30;;;19.00;64.40;;;;;;4981949;28;20541;-12
2022/05/26 07:47:07;;;;;;;0.28;0.20;;;19.10;64.20;;;;;;4960147;28;20045;-12
2022/05/26 07:49:34;;;;;;;0.40;0.28;;;19.10;64.00;;;;;;4972906;28;20110;-13
2022/05/26 07:52:01;;;;;;;0.30;0.20;;;19.10;63.90;;;;;;4975525;28;20070;-13
2022/05/26 07:54:30;;;;;;;0.52;0.25;;;19.20;63.80;;;;;;4974801;28;20049;-12
2022/05/26 07:56:56;;;;;;;0.47;0.30;;;19.20;63.70;;;;;;4975471;28;20051;-12
2022/05/26 07:59:22;;;;;;;1.38;0.30;;;19.20;63.60;;;;;;4962921;28;20469;-13
2022/05/26 08:01:48;;;;;;;1.10;0.43;;;19.20;63.50;;;;;;4975431;28;20074;-13
2022/05/26 08:04:14;;;;;;;1.15;0.30;;;19.30;63.40;;;;;;4975292;28;20049;-14
2022/05/26 08:06:40;;;;;;;0.10;0.10;;;19.30;63.40;;;;;;4974840;28;20057;-12
2022/05/26 08:09:05;;;;;;;0.20;0.20;;;19.30;63.30;;;;;;4974796;28;20137;-13
2022/05/26 08:11:31;;;;;;;0.30;0.20;;;19.30;63.20;;;;;;4973268;28;20046;-12
2022/05/26 08:13:56;;;;;;;0.22;0.22;;;19.30;63.10;;;;;;4975544;28;20780;-13
2022/05/26 08:16:22;;;;;;;0.60;0.20;;;19.30;62.90;;;;;;4974573;28;20116;-14
2022/05/26 08:18:48;;;;;;;0.17;0.17;;;19.40;63.00;;;;;;4975096;28;20089;-12
2022/05/26 08:21:16;;;;;;;0.38;0.28;;;19.40;63.00;;;;;;4974376;28;20046;-13
2022/05/26 08:23:41;;;;;;;0.50;0.40;;;19.40;62.90;;;;;;4973938;28;20043;-13
2022/05/26 08:26:07;;;;;;;2.28;0.40;;;19.50;63.00;;;;;;4974646;28;20054;-13
2022/05/26 08:28:33;;;;;;;0.63;0.35;;;19.40;62.80;;;;;;4972388;28;20035;-13
2022/05/26 08:30:59;;;;;;;0.10;0.10;;;19.50;62.80;;;;;;4974814;28;20397;-12
2022/05/26 08:33:26;;;;;;;0.40;0.10;;;19.50;62.80;;;;;;4972766;28;20170;-12
2022/05/26 08:36:09;;;;;;;0.22;0.10;;;19.50;62.80;;;;;;4973681;28;20049;-13
2022/05/26 08:38:35;;;;;;;0.43;0.20;;;19.50;62.70;;;;;;4973350;28;20046;-12
2022/05/26 08:41:02;;;;;;;0.20;0.10;;;19.50;62.60;;;;;;4974680;28;20050;-12
2022/05/26 08:43:40;;;;;;;0.43;0.20;;;19.50;62.60;;;;;;4972348;28;20051;-13
2022/05/26 08:46:07;;;;;;;0.50;0.40;;;19.60;62.60;;;;;;4974372;28;20386;-12
2022/05/26 08:48:45;;;;;;;0.52;0.20;;;19.60;62.50;;;;;;4973982;28;20047;-13
2022/05/26 08:51:13;;;;;;;0.17;0.17;;;19.60;62.60;;;;;;4973821;28;20400;-12
2022/05/26 08:53:39;;;;;;;0.60;0.50;;;19.60;62.60;;;;;;4972342;28;20428;-13
2022/05/26 08:56:05;;;;;;;0.10;0.10;;;19.60;62.60;;;;;;4960709;28;20039;-13
2022/05/26 08:58:37;;;;;;;0.32;0.20;;;19.60;62.50;;;;;;4982095;28;20050;-13
2022/05/26 09:01:03;;;;;;;0.20;0.20;;;19.70;62.30;;;;;;4976400;28;20042;-13
2022/05/26 09:03:30;;;;;;;0.30;0.20;;;19.70;62.20;;;;;;4973334;28;20047;-13
2022/05/26 09:06:13;;;;;;;0.35;0.13;;;19.70;62.10;;;;;;4973242;28;20130;-13
2022/05/26 09:14:20;;;;;;;0.60;0.17;;;19.70;62.00;;;;;;4973091;28;20053;-12
2022/05/26 09:16:46;;;;;;;0.15;0.15;;;19.80;62.00;;;;;;4986517;28;20053;-13
2022/05/26 09:19:19;;;;;;;1.15;0.20;;;19.80;61.80;;;;;;4972058;28;20047;-13
2022/05/26 09:21:46;;;;;;;0.20;0.20;;;19.80;62.00;;;;;;4952338;28;21473;-13
2022/05/26 09:24:15;;;;;;;0.22;0.20;;;19.80;61.90;;;;;;4963990;28;20070;-12
2022/05/26 09:26:51;;;;;;;0.20;0.20;;;19.80;61.70;;;;;;4973541;28;20069;-12
2022/05/26 09:29:19;;;;;;;1.38;0.20;;;19.80;61.70;;;;;;4970841;28;20054;-13
2022/05/26 09:31:48;;;;;;;0.52;0.20;;;19.90;61.90;;;;;;4954672;28;20050;-13
2022/05/26 09:34:22;;;;;;;0.35;0.20;;;19.90;61.80;;;;;;4972829;28;20043;-12
2022/05/26 09:37:00;;;;;;;;;;;19.90;61.60;;;;;;4972834;28;20508;-14
2022/05/26 09:39:46;;;;;;;0.30;0.20;;;19.90;61.50;;;;;;4972772;28;19918;-14
2022/05/26 09:42:14;;;;;;;0.20;0.20;;;19.90;61.40;;;;;;4970870;28;20050;-12
2022/05/26 09:44:40;;;;;;;0.20;0.20;;;19.90;61.40;;;;;;4972011;28;20054;-13
2022/05/26 09:47:32;;;;;;;1.33;0.30;;;19.90;61.40;;;;;;4971803;28;20114;-14
2022/05/26 09:49:59;;;;;;;0.20;0.20;;;19.90;61.40;;;;;;4972868;28;20051;-13
2022/05/26 09:52:28;;;;;;;0.20;0.20;;;19.90;61.30;;;;;;4970178;28;20045;-13
2022/05/26 09:55:17;;;;;;;0.45;0.25;;;19.90;61.10;;;;;;4968064;28;20416;-12
2022/05/26 09:57:42;;;;;;;0.55;0.20;;;19.90;61.20;;;;;;4966702;28;20527;-13
2022/05/26 10:00:41;;;;;;;0.35;0.20;;;19.90;61.20;;;;;;4970883;28;20129;-12
2022/05/26 10:03:31;;;;;;;0.28;0.20;;;19.90;61.00;;;;;;4970992;28;20112;-12
2022/05/26 10:06:15;;;;;;;0.30;0.10;;;19.90;60.80;;;;;;4971876;28;20058;-12
2022/05/26 10:08:50;;;;;;;0.20;0.20;;;20.00;60.70;;;;;;4971232;28;20046;-12
2022/05/26 10:11:47;;;;;;;0.40;0.20;;;20.00;60.70;;;;;;4971422;28;20049;-12
2022/05/26 10:14:23;;;;;;;0.30;0.20;;;20.00;60.50;;;;;;4968414;28;20039;-13
2022/05/26 10:16:48;;;;;;;0.40;0.30;;;20.00;60.50;;;;;;4970737;28;20074;-13
2022/05/26 10:19:52;;;;;;;0.30;0.30;;;20.00;60.70;;;;;;4971758;28;20047;-13
2022/05/26 10:22:33;;;;;;;0.20;0.17;;;20.00;60.60;;;;;;4937745;28;20372;-12
2022/05/26 10:25:18;;;;;;;0.40;0.22;;;20.00;60.50;;;;;;4971693;28;20078;-12
2022/05/26 10:27:48;;;;;;;;;;;20.00;60.30;;;;;;4972256;28;20047;-13
2022/05/26 10:30:42;;;;;;;0.30;0.25;;;20.00;60.40;;;;;;4969817;28;19980;-12
2022/05/26 10:33:35;;;;;;;0.20;0.20;;;20.00;60.30;;;;;;4971704;28;20046;-12
2022/05/26 10:36:10;;;;;;;0.30;0.30;;;20.00;60.40;;;;;;4962465;28;20051;-12
2022/05/26 10:38:57;;;;;;;0.28;0.28;;;20.00;60.40;;;;;;4969139;28;20070;-12
2022/05/26 10:41:55;;;;;;;0.22;0.20;;;20.00;60.20;;;;;;4967170;28;20043;-13
2022/05/26 10:44:26;;;;;;;0.43;0.20;;;20.00;60.50;;;;;;4958727;28;20134;-13
2022/05/26 10:47:16;;;;;;;0.10;0.10;;;20.10;60.30;;;;;;4976432;28;20146;-12
2022/05/26 10:49:53;;;;;;;1.20;0.10;;;20.10;60.40;;;;;;4970282;28;20419;-12
2022/05/26 10:52:24;;;;;;;0.22;0.20;;;20.10;60.40;;;;;;4970280;28;20530;-13
2022/05/26 10:54:56;;;;;;;1.23;0.28;;;20.00;60.40;;;;;;4978390;28;20070;-13
2022/05/26 10:57:40;;;;;;;0.22;0.22;;;20.00;60.30;;;;;;4969692;28;20074;-12
2022/05/26 11:00:10;;;;;;;;;;;20.00;60.50;;;;;;4947420;28;20408;-13
2022/05/26 11:03:07;;;;;;;0.17;0.17;;;20.10;60.60;;;;;;4956167;28;20391;-13
2022/05/26 11:05:48;;;;;;;0.10;0.10;;;20.10;60.40;;;;;;4969646;28;20061;-13
2022/05/26 11:08:34;;;;;;;0.13;0.13;;;20.10;60.60;;;;;;4970506;28;20050;-12
2022/05/26 11:11:21;;;;;;;0.20;0.20;;;20.10;60.50;;;;;;4968206;28;20043;-13
2022/05/26 11:13:55;;;;;;;0.57;0.25;;;20.10;60.60;;;;;;4967526;28;20051;-13
2022/05/26 11:19:38;;;;;;;0.52;0.20;;;20.10;60.70;;;;;;4973764;28;20058;-15
2022/05/26 11:22:04;;;;;;;0.30;0.15;;;20.10;60.70;;;;;;4972304;28;20121;-13
2022/05/26 11:24:29;;;;;;;0.30;0.20;;;20.10;60.70;;;;;;4975808;28;20084;-14
2022/05/26 11:26:58;;;;;;;0.25;0.10;;;20.10;60.70;;;;;;4973527;28;20177;-12
2022/05/26 11:29:35;;;;;;;0.70;0.28;;;20.10;60.70;;;;;;4972566;28;20039;-13
2022/05/26 11:36:07;;;;;;;0.17;0.15;;;20.10;60.70;;;;;;4968633;28;20077;-12
2022/05/26 11:38:29;;;;;;;0.20;0.10;;;20.10;60.70;;;;;;4972572;28;20058;-12
2022/05/26 11:41:05;;;;;;;0.35;0.35;;;20.10;60.80;;;;;;4964137;28;20374;-13
2022/05/26 11:43:37;;;;;;;0.38;0.30;;;20.10;60.80;;;;;;4974261;28;20042;-13
2022/05/26 11:46:03;;;;;;;0.20;0.20;;;20.10;60.80;;;;;;4973880;28;20039;-14
2022/05/26 11:48:32;;;;;;;0.10;0.10;;;20.10;60.70;;;;;;4975408;28;20046;-13
2022/05/26 11:51:16;;;;;;;0.40;0.20;;;20.10;60.70;;;;;;4974343;28;20162;-14
2022/05/26 11:53:46;;;;;;;2.63;0.38;;;20.10;60.60;;;;;;4973568;28;20047;-12
2022/05/26 11:56:28;;;;;;;0.68;0.20;;;20.20;60.60;;;;;;4973541;28;20445;-13
2022/05/26 11:59:20;;;;;;;0.20;0.20;;;20.10;60.60;;;;;;4973982;28;20079;-13
2022/05/26 12:01:46;;;;;;;0.20;0.20;;;20.20;60.80;;;;;;4973476;28;20039;-12
2022/05/26 12:04:12;;;;;;;0.40;0.22;;;20.20;60.60;;;;;;4974328;28;20045;-14
2022/05/26 12:06:38;;;;;;;0.20;0.20;;;20.20;60.70;;;;;;4974245;28;20571;-13
2022/05/26 12:09:14;;;;;;;0.28;0.15;;;20.20;60.70;;;;;;4974784;28;20050;-13
2022/05/26 12:11:51;;;;;;;0.20;0.20;;;20.20;61.00;;;;;;4971961;28;20500;-12
2022/05/26 12:14:54;;;;;;;0.82;0.30;;;20.20;60.80;;;;;;4974774;28;20130;-14
2022/05/26 12:17:45;;;;;;;0.20;0.20;;;20.20;61.00;;;;;;4973394;28;20039;-14
2022/05/26 12:20:10;;;;;;;0.30;0.30;;;20.30;60.50;;;;;;4972244;28;20054;-13
2022/05/26 12:22:54;;;;;;;0.70;0.22;;;20.20;60.90;;;;;;4969175;28;20039;-15
2022/05/26 12:25:35;;;;;;;1.05;0.20;;;20.30;61.00;;;;;;4968547;28;20046;-14
2022/05/26 12:28:14;;;;;;;0.20;0.20;;;20.30;61.30;;;;;;4966641;28;20047;-17
2022/05/26 12:30:46;;;;;;;0.10;0.10;;;20.40;60.90;;;;;;4966787;28;20540;-16
2022/05/26 12:33:25;;;;;;;0.10;0.10;;;20.40;61.10;;;;;;4969579;28;20130;-15
2022/05/26 12:35:53;;;;;;;0.22;0.20;;;20.40;60.80;;;;;;4966368;28;20057;-14
2022/05/26 12:38:49;;;;;;;0.20;0.20;;;20.50;60.80;;;;;;4968312;28;20069;-16
2022/05/26 12:41:20;;;;;;;0.20;0.20;;;20.40;60.70;;;;;;4967004;28;20097;-15
2022/05/26 12:43:59;;;;;;;0.30;0.20;;;20.50;60.60;;;;;;4967382;28;20394;-14
2022/05/26 12:46:43;;;;;;;0.95;0.20;;;20.40;60.60;;;;;;4967542;28;20504;-15
2022/05/26 12:49:20;;;;;;;0.13;0.13;;;20.50;60.60;;;;;;4966403;28;20042;-15
2022/05/26 12:51:46;;;;;;;0.17;0.13;;;20.50;60.40;;;;;;4968008;28;20039;-15
2022/05/26 12:54:16;;;;;;;0.20;0.20;;;20.50;60.40;;;;;;4949211;28;20042;-15
2022/05/26 12:56:57;;;;;;;0.10;0.10;;;20.60;60.30;;;;;;4950760;28;20146;-14
2022/05/26 12:59:25;;;;;;;0.20;0.20;;;20.60;60.10;;;;;;4967402;28;20116;-15
2022/05/26 13:01:51;;;;;;;0.40;0.20;;;20.60;60.00;;;;;;4967960;28;20054;-15
2022/05/26 13:04:27;;;;;;;0.20;0.20;;;20.60;60.10;;;;;;4967743;28;20508;-13
2022/05/26 13:06:53;;;;;;;0.20;0.20;;;20.60;59.90;;;;;;4966369;28;20066;-15
2022/05/26 13:09:24;;;;;;;0.32;0.20;;;20.60;59.90;;;;;;4967998;28;20054;-15
2022/05/26 13:11:52;;;;;;;0.20;0.20;;;20.70;60.00;;;;;;4965159;28;20046;-16
2022/05/26 13:14:51;;;;;;;0.30;0.28;;;20.70;59.70;;;;;;4968214;28;20059;-15
2022/05/26 13:17:18;;;;;;;0.20;0.20;;;20.70;59.90;;;;;;4968425;28;20308;-15
2022/05/26 13:19:45;;;;;;;0.65;0.20;;;20.70;59.60;;;;;;4964660;28;21058;-15
2022/05/26 13:22:13;;;;;;;0.63;0.20;;;20.70;59.60;;;;;;4967197;28;20720;-16
2022/05/26 13:24:39;;;;;;;0.20;0.20;;;20.70;59.80;;;;;;4967335;28;20472;-15
2022/05/26 13:27:09;;;;;;;0.20;0.20;;;20.80;59.50;;;;;;4949697;28;20424;-14
2022/05/26 13:29:35;;;;;;;0.20;0.20;;;20.80;59.30;;;;;;4965665;28;20043;-15
2022/05/26 13:34:49;;;;;;;0.10;0.10;;;20.80;59.30;;;;;;4965657;28;20480;-15
2022/05/26 13:37:26;;;;;;;0.30;0.28;;;20.80;59.30;;;;;;4968228;28;20047;-15
2022/05/26 13:40:09;;;;;;;0.20;0.20;;;20.70;59.60;;;;;;4965123;28;20074;-14
2022/05/26 13:42:36;;;;;;;0.32;0.32;;;20.70;59.50;;;;;;4965197;28;20054;-15
2022/05/26 13:45:08;;;;;;;0.25;0.20;;;20.70;59.30;;;;;;4965492;28;20055;-14